Time;durP1;ratioP1;P1;durP2;ratioP2;P2;SDS_P1;SDS_P2;PMS_P1;PMS_P2;Temp;Humidity;BMP_temperature;BMP_pressure;BME280_temperature;BME280_humidity;BME280_pressure;Samples;Min_cycle;Max_cycle;Signal;HPM_P1;HPM_P2
2023/05/30 00:01:14;;;;;;;11.60;4.20;;;10.90;99.90;;;;;;5056425;28;20048;-83
2023/05/30 00:03:44;;;;;;;7.85;3.42;;;10.90;99.90;;;;;;5075067;28;20043;-84
2023/05/30 00:06:14;;;;;;;8.88;3.67;;;10.90;99.90;;;;;;5091881;28;20051;-83
2023/05/30 00:08:40;;;;;;;11.20;3.60;;;10.90;99.90;;;;;;5067927;28;20044;-84
2023/05/30 00:11:07;;;;;;;8.98;4.50;;;11.00;99.90;;;;;;5066140;28;20051;-83
2023/05/30 00:13:32;;;;;;;9.38;3.40;;;11.60;99.90;;;;;;5067564;28;20167;-83
2023/05/30 00:15:59;;;;;;;10.55;3.35;;;11.00;99.90;;;;;;5078434;28;20169;-83
2023/05/30 00:18:25;;;;;;;9.52;3.28;;;11.00;99.90;;;;;;5081193;28;20052;-83
2023/05/30 00:20:51;;;;;;;11.35;3.38;;;11.00;99.90;;;;;;5085851;28;20048;-84
2023/05/30 00:23:18;;;;;;;11.32;3.67;;;11.00;99.90;;;;;;5069871;28;20420;-83
2023/05/30 00:25:48;;;;;;;9.10;3.10;;;10.50;99.90;;;;;;5076419;28;20040;-83
2023/05/30 00:28:14;;;;;;;8.75;3.10;;;11.00;99.90;;;;;;5079882;28;20080;-84
2023/05/30 00:30:41;;;;;;;10.05;2.95;;;11.00;99.90;;;;;;5052702;28;20464;-83
2023/05/30 00:33:06;;;;;;;8.32;3.42;;;11.00;99.90;;;;;;5081016;28;20044;-83
2023/05/30 00:35:32;;;;;;;12.27;3.65;;;11.10;99.90;;;;;;5059482;28;20043;-83
2023/05/30 00:37:58;;;;;;;7.53;3.00;;;11.00;99.90;;;;;;5066220;28;20044;-83
2023/05/30 00:40:23;;;;;;;9.18;3.15;;;11.00;99.90;;;;;;5068859;28;20691;-83
2023/05/30 00:42:50;;;;;;;14.45;3.95;;;11.00;99.90;;;;;;5063722;28;20039;-84
2023/05/30 00:45:15;;;;;;;10.23;3.10;;;11.00;99.90;;;;;;5084887;28;20036;-83
2023/05/30 00:47:44;;;;;;;18.88;3.40;;;11.00;99.90;;;;;;5076281;28;20560;-83
2023/05/30 00:50:11;;;;;;;10.55;3.13;;;11.10;99.90;;;;;;5082038;28;20039;-83
2023/05/30 00:52:37;;;;;;;15.50;4.18;;;11.10;99.90;;;;;;5065885;28;20131;-83
2023/05/30 00:55:03;;;;;;;20.13;3.72;;;11.10;99.90;;;;;;5062503;28;20196;-83
2023/05/30 00:57:33;;;;;;;9.48;3.45;;;11.10;99.90;;;;;;5064440;28;20056;-84
2023/05/30 01:00:00;;;;;;;9.90;4.22;;;11.10;99.90;;;;;;5068520;28;20056;-83
2023/05/30 01:02:26;;;;;;;10.45;4.10;;;11.40;99.90;;;;;;5062134;28;20070;-84
2023/05/30 01:04:51;;;;;;;10.05;3.85;;;11.10;99.90;;;;;;5093996;28;20087;-83
2023/05/30 01:07:17;;;;;;;6.57;3.80;;;11.10;99.90;;;;;;5088924;28;20044;-84
2023/05/30 01:09:42;;;;;;;9.80;4.03;;;11.30;99.90;;;;;;5062880;28;20415;-83
2023/05/30 01:12:18;;;;;;;11.48;3.95;;;11.10;99.90;;;;;;5059998;28;20044;-83
2023/05/30 01:14:55;;;;;;;8.43;3.70;;;11.10;99.90;;;;;;5087828;28;20070;-84
2023/05/30 01:17:24;;;;;;;8.50;3.60;;;11.10;99.90;;;;;;5065503;28;20076;-83
2023/05/30 01:20:09;;;;;;;14.15;4.20;;;11.10;99.90;;;;;;5082593;28;20062;-84
2023/05/30 01:22:49;;;;;;;7.60;3.65;;;11.10;99.90;;;;;;5080930;28;20057;-83
2023/05/30 01:25:52;;;;;;;11.13;3.55;;;11.10;99.90;;;;;;5061721;28;20403;-83
2023/05/30 01:28:21;;;;;;;11.18;4.15;;;11.10;99.90;;;;;;5057177;28;20546;-83
2023/05/30 01:30:49;;;;;;;7.75;3.83;;;11.50;99.90;;;;;;5075898;28;20440;-83
2023/05/30 01:33:16;;;;;;;8.52;3.80;;;11.10;99.90;;;;;;5070435;28;20046;-83
2023/05/30 01:35:46;;;;;;;9.25;3.60;;;11.10;99.90;;;;;;5070716;28;20036;-83
2023/05/30 01:38:12;;;;;;;8.05;3.50;;;11.20;99.90;;;;;;5085056;28;20044;-83
2023/05/30 01:40:39;;;;;;;7.10;3.83;;;11.10;99.90;;;;;;5073915;28;20093;-83
2023/05/30 01:43:48;;;;;;;7.43;3.60;;;11.10;99.90;;;;;;5069250;28;20056;-83
2023/05/30 01:46:32;;;;;;;10.85;3.20;;;11.10;99.90;;;;;;5034803;28;20086;-83
2023/05/30 01:49:23;;;;;;;10.25;3.35;;;11.50;99.90;;;;;;5059918;28;20036;-83
2023/05/30 01:52:06;;;;;;;11.13;3.95;;;11.10;99.90;;;;;;5089041;28;20055;-84
2023/05/30 01:54:34;;;;;;;10.68;4.07;;;11.10;99.90;;;;;;5080141;28;20495;-83
2023/05/30 01:57:08;;;;;;;8.38;3.50;;;11.10;99.90;;;;;;5076351;28;20427;-83
2023/05/30 01:59:34;;;;;;;11.43;3.97;;;11.30;99.90;;;;;;5085917;28;20055;-83
2023/05/30 02:02:02;;;;;;;6.18;3.55;;;11.00;99.90;;;;;;5075569;28;20187;-83
2023/05/30 02:04:27;;;;;;;8.95;2.80;;;11.00;99.90;;;;;;5083272;28;20048;-83
2023/05/30 02:06:53;;;;;;;7.85;3.10;;;11.00;99.90;;;;;;5084757;28;20041;-83
2023/05/30 02:09:18;;;;;;;9.55;3.63;;;10.90;99.90;;;;;;5050966;28;20045;-83
2023/05/30 02:11:44;;;;;;;8.30;3.35;;;11.00;99.90;;;;;;5066312;28;20040;-83
2023/05/30 02:14:10;;;;;;;7.20;3.72;;;11.00;99.90;;;;;;5089043;28;20044;-83
2023/05/30 02:16:36;;;;;;;7.28;3.05;;;11.00;99.90;;;;;;5083793;28;20044;-83
2023/05/30 02:19:02;;;;;;;8.20;3.15;;;10.90;99.90;;;;;;5069837;28;20062;-83
2023/05/30 02:21:29;;;;;;;7.85;3.33;;;10.90;99.90;;;;;;5085000;28;20044;-82
2023/05/30 02:23:55;;;;;;;9.48;2.88;;;10.90;99.90;;;;;;5073289;28;20033;-83
2023/05/30 02:26:20;;;;;;;9.48;3.40;;;10.90;99.90;;;;;;5083973;28;20090;-83
2023/05/30 02:28:46;;;;;;;10.73;3.35;;;10.90;99.90;;;;;;5069394;28;20051;-83
2023/05/30 02:31:12;;;;;;;7.53;2.90;;;10.90;99.90;;;;;;5087401;28;20055;-83
2023/05/30 02:33:37;;;;;;;7.80;3.78;;;10.90;99.90;;;;;;5061319;28;20044;-83
2023/05/30 02:36:03;;;;;;;6.35;2.80;;;10.90;99.90;;;;;;5096447;28;20385;-83
2023/05/30 02:38:29;;;;;;;8.25;3.13;;;10.90;99.90;;;;;;5101946;28;20108;-82
2023/05/30 02:40:54;;;;;;;7.95;3.38;;;10.90;99.90;;;;;;5070956;28;20036;-83
2023/05/30 02:43:20;;;;;;;9.20;3.38;;;10.90;99.90;;;;;;5086948;28;20032;-83
2023/05/30 02:45:46;;;;;;;8.90;3.30;;;10.90;99.90;;;;;;5065863;28;20091;-83
2023/05/30 02:48:11;;;;;;;9.13;2.85;;;10.90;99.90;;;;;;5070165;28;20043;-83
2023/05/30 02:50:37;;;;;;;12.55;3.67;;;10.90;99.90;;;;;;5085793;28;20093;-83
2023/05/30 02:53:02;;;;;;;7.70;3.25;;;11.40;99.90;;;;;;5086458;28;20044;-83
2023/05/30 02:55:28;;;;;;;7.55;3.78;;;11.30;99.90;;;;;;5070829;28;20130;-83
2023/05/30 02:57:53;;;;;;;14.27;3.67;;;10.90;99.90;;;;;;5086597;28;20048;-83
2023/05/30 03:00:20;;;;;;;11.43;3.70;;;10.90;99.90;;;;;;5052953;28;20425;-83
2023/05/30 03:02:46;;;;;;;6.15;2.90;;;10.90;99.90;;;;;;5080673;28;20059;-83
2023/05/30 03:05:12;;;;;;;8.10;3.53;;;10.80;99.90;;;;;;5069844;28;20048;-83
2023/05/30 03:07:38;;;;;;;7.80;3.40;;;10.80;99.90;;;;;;5070927;28;20046;-83
2023/05/30 03:10:04;;;;;;;10.40;3.40;;;10.80;99.90;;;;;;5055204;28;20110;-83
2023/05/30 03:12:30;;;;;;;8.75;3.75;;;10.80;99.90;;;;;;5049967;28;20051;-82
2023/05/30 03:14:55;;;;;;;9.52;3.80;;;10.80;99.90;;;;;;5060169;28;20045;-83
2023/05/30 03:17:22;;;;;;;8.32;3.55;;;10.80;99.90;;;;;;5063621;28;20075;-83
2023/05/30 03:19:47;;;;;;;9.05;3.13;;;10.80;99.90;;;;;;5084387;28;20491;-83
2023/05/30 03:22:13;;;;;;;8.23;3.30;;;10.80;99.90;;;;;;5063416;28;20051;-84
2023/05/30 03:24:39;;;;;;;9.15;3.80;;;10.80;99.90;;;;;;5085592;28;20135;-83
2023/05/30 03:27:07;;;;;;;8.50;3.45;;;10.80;99.90;;;;;;5069860;28;20036;-83
2023/05/30 03:29:33;;;;;;;9.13;3.30;;;10.90;99.90;;;;;;5074422;28;20052;-83
2023/05/30 03:31:59;;;;;;;10.55;3.80;;;11.40;99.90;;;;;;5055070;28;20346;-83
2023/05/30 03:34:25;;;;;;;8.35;3.47;;;10.90;99.90;;;;;;5066481;28;20135;-83
2023/05/30 03:36:52;;;;;;;8.18;3.28;;;10.90;99.90;;;;;;5067205;28;20048;-82
2023/05/30 03:39:21;;;;;;;6.93;3.63;;;11.00;99.90;;;;;;5087090;28;21459;-83
2023/05/30 03:41:47;;;;;;;7.50;3.78;;;11.00;99.90;;;;;;5071107;28;21741;-83
2023/05/30 03:44:13;;;;;;;8.00;3.60;;;11.00;99.90;;;;;;5058474;28;20048;-84
2023/05/30 03:46:38;;;;;;;7.60;3.58;;;11.00;99.90;;;;;;5052541;28;20047;-84
2023/05/30 03:49:05;;;;;;;9.50;3.70;;;11.00;99.90;;;;;;5071964;28;20044;-83
2023/05/30 03:51:30;;;;;;;12.07;4.03;;;11.10;99.90;;;;;;5086632;28;20541;-83
2023/05/30 03:53:56;;;;;;;10.75;4.30;;;11.10;99.90;;;;;;5075692;28;20048;-83
2023/05/30 03:56:22;;;;;;;8.18;3.50;;;11.60;99.90;;;;;;5092724;28;20058;-83
2023/05/30 03:58:47;;;;;;;8.10;3.20;;;11.10;99.90;;;;;;5085836;28;20118;-83
2023/05/30 04:01:13;;;;;;;9.60;3.42;;;11.20;99.90;;;;;;5074716;28;20043;-83
2023/05/30 04:03:39;;;;;;;8.43;3.47;;;11.20;99.90;;;;;;5049056;28;20525;-83
2023/05/30 04:06:08;;;;;;;15.35;3.88;;;11.20;99.90;;;;;;5067080;28;20040;-83
2023/05/30 04:08:36;;;;;;;9.48;3.20;;;11.20;99.90;;;;;;5066488;28;20044;-83
2023/05/30 04:11:03;;;;;;;9.48;3.75;;;11.30;99.90;;;;;;5066178;28;20458;-83
2023/05/30 04:13:28;;;;;;;12.07;3.90;;;11.30;99.90;;;;;;5066062;28;20094;-84
2023/05/30 04:15:54;;;;;;;8.40;3.25;;;11.80;99.90;;;;;;5074438;28;20048;-83
2023/05/30 04:18:20;;;;;;;6.10;2.92;;;11.40;99.90;;;;;;5060236;28;20448;-83
2023/05/30 04:20:45;;;;;;;10.15;3.38;;;11.50;99.90;;;;;;5063601;28;20056;-83
2023/05/30 04:23:11;;;;;;;7.28;3.30;;;11.50;99.90;;;;;;5088986;28;20116;-83
2023/05/30 04:25:37;;;;;;;8.88;3.60;;;11.60;99.90;;;;;;5069637;28;20102;-84
2023/05/30 04:28:05;;;;;;;8.77;4.28;;;11.60;99.90;;;;;;5080027;28;20079;-83
2023/05/30 04:30:35;;;;;;;6.43;3.63;;;11.40;99.90;;;;;;5058037;28;20478;-84
2023/05/30 04:33:01;;;;;;;7.80;3.50;;;11.70;99.90;;;;;;5070478;28;20049;-83
2023/05/30 04:35:26;;;;;;;8.80;3.70;;;11.70;99.90;;;;;;5058174;28;20138;-84
2023/05/30 04:37:53;;;;;;;9.18;3.58;;;12.10;99.90;;;;;;5075840;28;20075;-83
2023/05/30 04:40:19;;;;;;;7.13;4.20;;;11.80;99.90;;;;;;5089777;28;20046;-83
2023/05/30 04:42:51;;;;;;;10.50;3.95;;;11.80;99.90;;;;;;5072857;28;20048;-84
2023/05/30 04:45:18;;;;;;;8.05;3.33;;;11.90;99.90;;;;;;5072181;28;20079;-83
2023/05/30 04:47:45;;;;;;;7.88;3.05;;;11.90;99.90;;;;;;5085719;28;20158;-83
2023/05/30 04:50:15;;;;;;;11.50;3.90;;;12.00;99.90;;;;;;5053625;28;20048;-83
2023/05/30 04:52:44;;;;;;;7.93;3.65;;;12.00;99.90;;;;;;5069504;28;20052;-84
2023/05/30 04:55:10;;;;;;;10.25;3.85;;;12.10;99.90;;;;;;5074890;28;20044;-83
2023/05/30 04:57:38;;;;;;;11.02;4.03;;;12.10;99.90;;;;;;5088521;28;20441;-85
2023/05/30 05:00:05;;;;;;;13.10;3.95;;;12.10;99.90;;;;;;5087767;28;20056;-83
2023/05/30 05:02:30;;;;;;;16.05;5.07;;;12.10;99.90;;;;;;5076604;28;20637;-83
2023/05/30 05:04:56;;;;;;;10.80;3.83;;;12.20;99.90;;;;;;5083187;28;20131;-86
2023/05/30 05:07:22;;;;;;;16.33;4.15;;;12.20;99.90;;;;;;5085250;28;20036;-83
2023/05/30 05:09:47;;;;;;;7.03;3.22;;;12.30;99.90;;;;;;5090532;28;20078;-82
2023/05/30 05:12:13;;;;;;;11.05;3.22;;;12.30;99.90;;;;;;5082668;28;20052;-83
2023/05/30 05:14:41;;;;;;;14.60;3.97;;;12.40;99.90;;;;;;5079548;28;20492;-83
2023/05/30 05:17:07;;;;;;;12.05;3.83;;;12.40;99.90;;;;;;5088683;28;20046;-83
2023/05/30 05:19:34;;;;;;;8.65;3.85;;;12.40;99.90;;;;;;5055114;28;20044;-84
2023/05/30 05:22:02;;;;;;;9.68;3.53;;;12.40;99.90;;;;;;5075305;28;20048;-84
2023/05/30 05:24:28;;;;;;;11.38;3.58;;;12.50;99.90;;;;;;5087774;28;20059;-83
2023/05/30 05:26:54;;;;;;;10.98;3.70;;;12.50;99.90;;;;;;5079245;28;20044;-84
2023/05/30 05:29:19;;;;;;;12.40;3.92;;;12.50;99.90;;;;;;5082196;28;20048;-83
2023/05/30 05:31:45;;;;;;;12.10;3.95;;;12.90;99.90;;;;;;5085804;28;20105;-84
2023/05/30 05:34:11;;;;;;;11.23;3.38;;;12.80;99.90;;;;;;5079166;28;20093;-83
2023/05/30 05:36:37;;;;;;;8.73;3.63;;;12.60;99.90;;;;;;5090132;28;20032;-84
2023/05/30 05:39:02;;;;;;;9.07;3.75;;;12.70;99.90;;;;;;5090849;28;20044;-84
2023/05/30 05:41:28;;;;;;;10.85;3.22;;;12.80;99.90;;;;;;5082547;28;20043;-84
2023/05/30 05:43:54;;;;;;;18.23;3.75;;;12.80;99.90;;;;;;5090514;28;20777;-84
2023/05/30 05:46:20;;;;;;;12.68;3.58;;;12.90;99.90;;;;;;5087609;28;20048;-83
2023/05/30 05:48:45;;;;;;;11.43;3.53;;;13.00;99.90;;;;;;5089916;28;20521;-84
2023/05/30 05:51:11;;;;;;;14.02;3.58;;;13.00;99.90;;;;;;5088439;28;20048;-84
2023/05/30 05:53:37;;;;;;;12.00;3.83;;;13.10;99.90;;;;;;5072089;28;20040;-84
2023/05/30 05:56:03;;;;;;;14.60;3.70;;;13.10;99.90;;;;;;5088951;28;20040;-84
2023/05/30 05:58:28;;;;;;;14.13;4.22;;;13.70;99.90;;;;;;5086304;28;20139;-84
2023/05/30 06:00:54;;;;;;;11.93;3.50;;;13.00;99.90;;;;;;5084874;28;20036;-84
2023/05/30 06:03:20;;;;;;;10.57;3.45;;;13.10;99.90;;;;;;5096800;28;20090;-82
2023/05/30 06:05:45;;;;;;;17.73;5.15;;;13.10;99.90;;;;;;5067870;28;20055;-85
2023/05/30 06:08:11;;;;;;;20.05;4.30;;;13.10;99.90;;;;;;5071643;28;20425;-82
2023/05/30 06:10:36;;;;;;;10.45;3.33;;;13.10;99.90;;;;;;5088258;28;20586;-84
2023/05/30 06:13:02;;;;;;;11.85;3.67;;;13.10;99.90;;;;;;5071758;28;20044;-84
2023/05/30 06:15:28;;;;;;;11.10;3.10;;;13.20;99.90;;;;;;5088587;28;20549;-84
2023/05/30 06:17:53;;;;;;;10.73;3.72;;;13.60;99.90;;;;;;5071472;28;20044;-83
2023/05/30 06:20:19;;;;;;;7.82;3.00;;;13.10;99.90;;;;;;5054872;28;20187;-84
2023/05/30 06:22:44;;;;;;;5.80;3.13;;;13.20;99.90;;;;;;5051187;28;20040;-84
2023/05/30 06:25:10;;;;;;;6.45;2.72;;;13.20;99.90;;;;;;5051346;28;20094;-83
2023/05/30 06:27:35;;;;;;;7.07;3.33;;;13.10;99.90;;;;;;5050873;28;20667;-84
2023/05/30 06:30:01;;;;;;;9.85;3.33;;;13.10;99.90;;;;;;5068071;28;20048;-84
2023/05/30 06:32:27;;;;;;;7.65;3.20;;;13.10;99.90;;;;;;5069076;28;20075;-84
2023/05/30 06:34:52;;;;;;;8.45;3.60;;;13.00;99.90;;;;;;5068581;28;20559;-84
2023/05/30 06:37:18;;;;;;;7.25;2.50;;;13.10;99.90;;;;;;5078826;28;20049;-83
2023/05/30 06:39:44;;;;;;;7.15;3.13;;;13.10;99.90;;;;;;5066174;28;20666;-83
2023/05/30 06:42:10;;;;;;;6.13;2.92;;;13.10;99.90;;;;;;5067103;28;20376;-83
2023/05/30 06:44:36;;;;;;;7.22;3.40;;;13.10;99.90;;;;;;5066595;28;20063;-83
2023/05/30 06:47:03;;;;;;;7.82;3.05;;;13.00;99.90;;;;;;5067299;28;20037;-83
2023/05/30 06:49:30;;;;;;;7.97;3.33;;;13.00;99.90;;;;;;5066816;28;20055;-83
2023/05/30 06:51:55;;;;;;;7.60;3.38;;;13.00;99.90;;;;;;5074621;28;20079;-83
2023/05/30 06:54:21;;;;;;;11.48;3.30;;;13.10;99.90;;;;;;5088566;28;20079;-83
2023/05/30 06:56:47;;;;;;;19.70;3.80;;;13.10;99.90;;;;;;5088383;28;20044;-83
2023/05/30 06:59:13;;;;;;;7.07;3.20;;;13.00;99.90;;;;;;5088954;28;20533;-82
2023/05/30 07:01:38;;;;;;;7.05;2.83;;;13.00;99.90;;;;;;5088869;28;20040;-83
2023/05/30 07:04:04;;;;;;;8.68;3.05;;;13.00;99.90;;;;;;5088268;28;20044;-82
2023/05/30 07:06:29;;;;;;;7.85;2.75;;;12.90;99.90;;;;;;5087030;28;20052;-83
2023/05/30 07:08:55;;;;;;;5.95;3.03;;;12.90;99.90;;;;;;5088736;28;20051;-83
2023/05/30 07:11:22;;;;;;;7.65;3.00;;;12.90;99.90;;;;;;5089109;28;20150;-82
2023/05/30 07:13:47;;;;;;;7.32;2.80;;;12.90;99.90;;;;;;5088731;28;20860;-82
2023/05/30 07:16:13;;;;;;;7.65;2.60;;;12.90;99.90;;;;;;5087596;28;20048;-83
2023/05/30 07:18:39;;;;;;;4.75;2.80;;;12.90;99.90;;;;;;5086930;28;20453;-82
2023/05/30 07:21:07;;;;;;;5.80;2.53;;;12.90;99.90;;;;;;5087331;28;20040;-82
2023/05/30 07:23:33;;;;;;;6.90;3.03;;;13.20;99.90;;;;;;5086840;28;20056;-83
2023/05/30 07:26:02;;;;;;;6.80;3.03;;;12.90;99.90;;;;;;5100066;28;20043;-82
2023/05/30 07:28:28;;;;;;;6.70;2.78;;;12.90;99.90;;;;;;5089554;28;20042;-83
2023/05/30 07:30:53;;;;;;;6.10;2.47;;;12.90;99.90;;;;;;5106805;28;20048;-82
2023/05/30 07:33:19;;;;;;;6.63;3.20;;;13.30;99.90;;;;;;5107563;28;20109;-82
2023/05/30 07:35:45;;;;;;;9.05;3.25;;;12.90;99.90;;;;;;5108040;28;20052;-83
2023/05/30 07:38:12;;;;;;;5.20;2.58;;;12.90;99.90;;;;;;5107459;28;20138;-82
2023/05/30 07:40:37;;;;;;;4.32;2.20;;;13.30;99.90;;;;;;5105001;28;20150;-83
2023/05/30 07:43:03;;;;;;;5.60;2.58;;;13.00;99.90;;;;;;5106433;28;20162;-84
2023/05/30 07:45:28;;;;;;;6.50;2.30;;;13.20;99.90;;;;;;5073667;28;20427;-82
2023/05/30 07:47:54;;;;;;;7.60;1.98;;;13.40;99.90;;;;;;5058638;28;20040;-83
2023/05/30 07:50:20;;;;;;;8.45;2.15;;;12.90;99.90;;;;;;5080577;28;20043;-83
2023/05/30 07:52:46;;;;;;;3.97;2.03;;;12.90;99.90;;;;;;5075951;28;20522;-83
2023/05/30 07:55:12;;;;;;;2.95;1.92;;;13.30;99.90;;;;;;5082382;28;20052;-83
2023/05/30 07:57:38;;;;;;;4.40;2.17;;;13.00;99.90;;;;;;5067879;28;20079;-82
2023/05/30 08:00:08;;;;;;;5.13;1.80;;;12.90;99.90;;;;;;5076715;28;20509;-83
2023/05/30 08:02:37;;;;;;;3.88;1.80;;;13.10;99.90;;;;;;5085582;28;20048;-84
2023/05/30 08:05:02;;;;;;;3.63;1.58;;;13.10;99.90;;;;;;5085835;28;20047;-82
2023/05/30 08:07:30;;;;;;;2.92;1.45;;;13.20;99.90;;;;;;5087904;28;20108;-86
2023/05/30 08:09:56;;;;;;;5.22;1.92;;;13.20;99.90;;;;;;5086381;28;20079;-84
2023/05/30 08:12:24;;;;;;;2.58;1.40;;;13.40;99.90;;;;;;5069693;28;20531;-85
2023/05/30 08:14:50;;;;;;;3.97;1.65;;;13.40;99.90;;;;;;5085801;28;20052;-86
2023/05/30 08:17:16;;;;;;;5.47;1.63;;;13.50;99.90;;;;;;5061775;28;20044;-85
2023/05/30 08:19:42;;;;;;;3.53;1.20;;;13.60;99.90;;;;;;5066082;28;20053;-85
2023/05/30 08:22:10;;;;;;;2.78;1.45;;;13.60;99.90;;;;;;5049680;28;20082;-85
2023/05/30 08:24:36;;;;;;;4.18;1.63;;;14.10;99.90;;;;;;5079682;28;20048;-86
2023/05/30 08:27:03;;;;;;;7.05;1.80;;;13.90;99.90;;;;;;5068056;28;20086;-86
2023/05/30 08:29:28;;;;;;;5.90;1.70;;;13.70;99.90;;;;;;5066752;28;20118;-86
2023/05/30 08:31:55;;;;;;;5.28;1.88;;;14.20;99.90;;;;;;5105725;28;20457;-85
2023/05/30 08:34:24;;;;;;;3.45;1.67;;;13.80;99.90;;;;;;5089455;28;20137;-86
2023/05/30 08:36:52;;;;;;;2.97;1.95;;;13.90;99.90;;;;;;5102810;28;20039;-86
2023/05/30 08:39:18;;;;;;;3.00;1.73;;;14.20;99.90;;;;;;5089249;28;20048;-86
2023/05/30 08:41:44;;;;;;;4.40;1.35;;;14.20;99.90;;;;;;5107951;28;20130;-86
2023/05/30 08:44:10;;;;;;;2.08;1.50;;;14.30;99.90;;;;;;5098308;28;20131;-85
2023/05/30 08:46:42;;;;;;;1.98;1.70;;;14.30;99.90;;;;;;5084266;28;20085;-86
2023/05/30 08:49:13;;;;;;;3.60;1.50;;;14.20;99.90;;;;;;5083975;28;20052;-86
2023/05/30 08:51:42;;;;;;;2.42;1.30;;;14.30;99.90;;;;;;5077987;28;20060;-85
2023/05/30 08:54:15;;;;;;;3.72;1.30;;;14.60;99.90;;;;;;5104545;28;20039;-86
2023/05/30 08:56:48;;;;;;;4.55;1.83;;;14.40;99.90;;;;;;5105701;28;20044;-86
2023/05/30 08:59:17;;;;;;;2.03;1.40;;;14.40;99.90;;;;;;5073733;28;20481;-85
2023/05/30 09:01:44;;;;;;;2.67;1.70;;;14.40;99.90;;;;;;5069062;28;20048;-85
2023/05/30 09:04:11;;;;;;;1.92;1.70;;;14.40;99.90;;;;;;5069067;28;20147;-86
2023/05/30 09:06:38;;;;;;;2.92;1.42;;;14.30;99.90;;;;;;5082028;28;20044;-85
2023/05/30 09:09:04;;;;;;;3.10;1.77;;;14.90;99.90;;;;;;5088377;28;20356;-86
2023/05/30 09:11:30;;;;;;;3.67;2.10;;;14.30;99.90;;;;;;5088469;28;20456;-86
2023/05/30 09:13:56;;;;;;;3.88;1.85;;;14.80;99.90;;;;;;5089164;28;20062;-86
2023/05/30 09:16:22;;;;;;;4.68;1.80;;;14.20;99.90;;;;;;5089982;28;20055;-85
2023/05/30 09:18:48;;;;;;;3.05;1.50;;;14.30;99.90;;;;;;5073480;28;20047;-86
2023/05/30 09:21:14;;;;;;;1.90;1.67;;;14.20;99.90;;;;;;5101642;28;20046;-85
2023/05/30 09:23:43;;;;;;;4.00;1.83;;;14.30;99.90;;;;;;5109896;28;20134;-85
2023/05/30 09:26:13;;;;;;;2.75;1.73;;;14.40;99.90;;;;;;5070701;28;20127;-84
2023/05/30 09:28:38;;;;;;;2.65;1.70;;;14.40;99.90;;;;;;5069271;28;20041;-85
2023/05/30 09:31:06;;;;;;;2.47;1.40;;;14.40;99.90;;;;;;5070879;28;20052;-86
2023/05/30 09:33:49;;;;;;;1.63;1.52;;;14.50;99.90;;;;;;5068843;28;20070;-86
2023/05/30 09:36:22;;;;;;;3.05;2.03;;;14.50;99.90;;;;;;5083522;28;20047;-85
2023/05/30 09:38:52;;;;;;;2.72;2.10;;;14.40;99.90;;;;;;5092244;28;20036;-86
2023/05/30 09:41:18;;;;;;;3.05;2.25;;;14.30;99.90;;;;;;5083850;28;20408;-86
2023/05/30 09:43:44;;;;;;;4.18;1.92;;;14.30;99.90;;;;;;5085708;28;20032;-86
2023/05/30 09:46:09;;;;;;;3.50;1.95;;;14.60;99.90;;;;;;5070297;28;20032;-86
2023/05/30 09:48:39;;;;;;;2.92;1.65;;;14.30;99.90;;;;;;5086031;28;20041;-85
2023/05/30 09:51:05;;;;;;;3.30;2.08;;;14.90;99.90;;;;;;5070277;28;20479;-87
2023/05/30 09:53:33;;;;;;;4.22;2.00;;;14.40;99.90;;;;;;5070193;28;20128;-86
2023/05/30 09:56:01;;;;;;;2.25;2.05;;;14.80;99.90;;;;;;5052062;28;20043;-85
2023/05/30 09:58:27;;;;;;;2.70;2.17;;;14.40;99.90;;;;;;5068382;28;20460;-86
2023/05/30 10:00:55;;;;;;;3.17;2.17;;;14.50;99.90;;;;;;5052398;28;20060;-86
2023/05/30 10:03:40;;;;;;;3.30;1.80;;;14.60;99.90;;;;;;5066149;28;20040;-86
2023/05/30 10:06:14;;;;;;;3.75;2.13;;;15.30;99.90;;;;;;5088588;28;20515;-86
2023/05/30 10:08:44;;;;;;;2.90;1.70;;;15.10;99.90;;;;;;5090303;28;20051;-85
2023/05/30 10:11:11;;;;;;;1.73;1.52;;;15.60;99.90;;;;;;5097311;28;20052;-84
2023/05/30 10:13:38;;;;;;;1.50;1.40;;;15.50;99.90;;;;;;5093329;28;20044;-84
2023/05/30 10:16:09;;;;;;;3.10;1.75;;;15.50;99.90;;;;;;5067522;28;20079;-85
2023/05/30 10:18:46;;;;;;;6.50;2.30;;;15.50;99.90;;;;;;5097913;28;20031;-86
2023/05/30 10:21:14;;;;;;;4.63;2.50;;;15.60;99.90;;;;;;5085417;28;20063;-86
2023/05/30 10:23:41;;;;;;;4.68;2.08;;;15.90;99.90;;;;;;5083744;28;20044;-87
2023/05/30 10:26:10;;;;;;;4.30;1.77;;;15.50;99.90;;;;;;5061476;28;20040;-87
2023/05/30 10:28:38;;;;;;;5.15;1.90;;;15.60;99.90;;;;;;5084639;28;20050;-87
2023/05/30 10:31:04;;;;;;;3.88;1.60;;;15.70;99.90;;;;;;5076852;28;20051;-86
2023/05/30 10:33:36;;;;;;;2.03;1.80;;;15.60;99.90;;;;;;5088441;28;20123;-87
2023/05/30 10:36:02;;;;;;;2.03;1.63;;;15.60;99.90;;;;;;5071248;28;20048;-86
2023/05/30 10:38:31;;;;;;;4.38;2.15;;;15.60;99.90;;;;;;5077102;28;20058;-84
2023/05/30 10:41:06;;;;;;;2.22;1.90;;;15.70;99.90;;;;;;5051896;28;20119;-85
2023/05/30 10:44:08;;;;;;;2.42;1.75;;;15.70;99.90;;;;;;5068066;28;20419;-86
2023/05/30 10:46:55;;;;;;;4.20;1.80;;;15.80;99.90;;;;;;5068327;28;20155;-86
2023/05/30 10:49:25;;;;;;;3.53;2.22;;;15.90;99.90;;;;;;5050387;28;20307;-85
2023/05/30 10:52:03;;;;;;;1.77;1.40;;;15.90;99.90;;;;;;5067564;28;20064;-86
2023/05/30 10:54:36;;;;;;;6.65;1.80;;;16.00;99.90;;;;;;5050074;28;20055;-86
2023/05/30 10:57:20;;;;;;;3.10;1.80;;;16.00;99.90;;;;;;5101398;28;20043;-85
2023/05/30 10:59:47;;;;;;;2.97;1.60;;;16.30;99.90;;;;;;5086241;28;20068;-86
2023/05/30 11:02:20;;;;;;;1.60;1.50;;;16.20;99.90;;;;;;5066863;28;20086;-85
2023/05/30 11:04:49;;;;;;;1.70;1.35;;;16.10;99.90;;;;;;5066937;28;20099;-85
2023/05/30 11:07:16;;;;;;;1.40;1.30;;;16.10;99.90;;;;;;5050734;28;20036;-85
2023/05/30 11:10:03;;;;;;;1.63;1.45;;;16.00;99.90;;;;;;5050533;28;20079;-85
2023/05/30 11:12:29;;;;;;;1.58;1.30;;;16.00;99.90;;;;;;5055766;28;20072;-85
2023/05/30 11:14:56;;;;;;;1.40;1.30;;;16.00;99.90;;;;;;5085742;28;20048;-85
2023/05/30 11:17:30;;;;;;;2.40;1.40;;;15.80;99.90;;;;;;5087357;28;20457;-85
2023/05/30 11:20:09;;;;;;;2.05;1.58;;;15.70;99.90;;;;;;5085833;28;20457;-85
2023/05/30 11:22:37;;;;;;;1.85;1.70;;;15.60;99.90;;;;;;5086671;28;20052;-84
2023/05/30 11:25:23;;;;;;;1.48;1.30;;;16.10;99.90;;;;;;5086890;28;20050;-84
2023/05/30 11:28:04;;;;;;;2.55;1.48;;;15.80;99.90;;;;;;5085246;28;20055;-84
2023/05/30 11:30:30;;;;;;;1.75;1.25;;;15.90;99.90;;;;;;5056717;28;20109;-84
2023/05/30 11:32:58;;;;;;;1.80;1.00;;;16.20;99.90;;;;;;5085961;28;20056;-84
2023/05/30 11:35:26;;;;;;;2.28;1.42;;;16.00;99.90;;;;;;5085336;28;20752;-85
2023/05/30 11:37:53;;;;;;;2.05;1.17;;;16.00;99.90;;;;;;5085313;28;20052;-84
2023/05/30 11:40:21;;;;;;;1.70;1.45;;;16.10;99.90;;;;;;5085441;28;20522;-85
2023/05/30 11:42:51;;;;;;;2.55;1.27;;;16.20;99.90;;;;;;5082797;28;20075;-83
2023/05/30 11:45:18;;;;;;;3.40;1.27;;;16.20;99.90;;;;;;5047820;28;20076;-84
2023/05/30 11:47:46;;;;;;;1.30;1.20;;;16.20;99.90;;;;;;5066842;28;20048;-83
2023/05/30 11:50:12;;;;;;;1.70;1.02;;;16.20;99.90;;;;;;5086691;28;20495;-83
2023/05/30 11:52:41;;;;;;;2.70;1.30;;;16.20;99.90;;;;;;5085100;28;20054;-83
2023/05/30 11:55:07;;;;;;;1.20;1.10;;;16.20;99.90;;;;;;5068916;28;20092;-84
2023/05/30 11:57:33;;;;;;;1.60;1.33;;;16.20;99.90;;;;;;5069904;28;20040;-84
2023/05/30 12:00:02;;;;;;;2.15;1.25;;;16.20;99.90;;;;;;5069442;28;20039;-85
2023/05/30 12:02:28;;;;;;;1.85;1.10;;;16.20;99.90;;;;;;5086342;28;20047;-85
2023/05/30 12:05:01;;;;;;;1.95;1.40;;;16.10;99.90;;;;;;5059954;28;20041;-85
2023/05/30 12:07:27;;;;;;;1.60;1.50;;;16.10;99.90;;;;;;5053853;28;20048;-86
2023/05/30 12:09:53;;;;;;;2.55;1.13;;;16.10;99.90;;;;;;5066298;28;20128;-85
2023/05/30 12:12:19;;;;;;;1.65;1.10;;;16.10;99.90;;;;;;5049377;28;20060;-85
2023/05/30 12:14:44;;;;;;;1.65;1.50;;;16.20;99.90;;;;;;5049743;28;20040;-85
2023/05/30 12:17:12;;;;;;;4.32;1.58;;;16.60;99.90;;;;;;5065960;28;20048;-86
2023/05/30 12:19:40;;;;;;;1.75;1.30;;;16.40;99.90;;;;;;5066950;28;20036;-86
2023/05/30 12:22:06;;;;;;;1.70;1.27;;;16.30;99.90;;;;;;5101051;28;20036;-85
2023/05/30 12:24:36;;;;;;;1.20;1.10;;;16.40;99.90;;;;;;5101179;28;20048;-86
2023/05/30 12:27:05;;;;;;;1.48;1.20;;;16.50;99.90;;;;;;5086394;28;20084;-85
2023/05/30 12:29:32;;;;;;;1.45;1.30;;;16.70;99.90;;;;;;5085493;28;20097;-86
2023/05/30 12:31:58;;;;;;;1.80;1.30;;;17.10;99.90;;;;;;5086219;28;20048;-86
2023/05/30 12:34:24;;;;;;;2.35;1.30;;;16.80;99.90;;;;;;5085743;28;20040;-86
2023/05/30 12:36:55;;;;;;;2.00;1.40;;;17.10;99.70;;;;;;5073504;28;20086;-86
2023/05/30 12:39:21;;;;;;;3.10;1.20;;;16.80;99.30;;;;;;5070282;28;20051;-86
2023/05/30 12:41:47;;;;;;;1.10;1.10;;;16.70;99.30;;;;;;5061467;28;20029;-86
2023/05/30 12:44:19;;;;;;;1.35;1.23;;;16.60;99.30;;;;;;5069505;28;20037;-86
2023/05/30 12:46:45;;;;;;;2.33;1.00;;;16.60;99.40;;;;;;5055399;28;20037;-86
2023/05/30 12:49:11;;;;;;;2.25;1.13;;;16.50;99.50;;;;;;5052187;28;20040;-85